Other Surface Observations
Issued by NWS Great Falls, MT

Home | Current Version | Previous Version | Text Only | Print | Product List | Glossary On
Versions: 1 2 3 4 5 6 7 8 9 10 11 12 13 14 15 16 17 18 19 20 21 22 23 24 25 26 27 28 29 30 31 32 33 34 35 36 37 38 39 40 41 42 43 44 45 46 47 48 49 50
000
SXUS55 KTFX 261408
OSOTFX

AREA AWOS OBSERVATIONS
NATIONAL WEATHER SERVICE GREAT FALLS MT
0808 AM MDT Tue Jul 26 2016

METAR K6S8 261355Z AUTO 05001KT 40SM 19/10 A3008 RMK A01 T01880100
METAR K6S8 261255Z AUTO 31000KT 40SM 18/09 A3006 RMK A01 T01770088
METAR K7S0 261255Z AUTO 36000KT 40SM 12/09 A3009 RMK A01 T01220094
METAR K7S1 261355Z AUTO 16003KT 40SM 13/05 A3016 RMK A01 T01270050
METAR K97M 261355Z AUTO 12006KT 40SM 17/14 A3003 RMK A01 T01660138
METAR K9S2 261355Z AUTO 34005KT 40SM 17/11 A3008 RMK A01 T01720105
METAR K9S5 261355Z AUTO 28000KT 25SM 16/05 A3013 RMK A01 T01610050
METAR KRPX 261355Z AUTO 20000KT 40SM 18/11 A3000 RMK A01 T01830111
METAR KS01 261355Z AUTO 29000KT 15SM 18/16 A3012 RMK A01 T01770161
METAR KS34 261355Z AUTO  25SM 16/09 A3006 RMK A01 T01550088
METAR KTHM 261255Z AUTO 27000KT 40SM 11/09 A3009 RMK A01 T01110094



USA.gov is the U.S. government's official web portal to all federal, state and local government web resources and services.